Time;durP1;ratioP1;P1;durP2;ratioP2;P2;SDS_P1;SDS_P2;PMS_P1;PMS_P2;Temp;Humidity;BMP_temperature;BMP_pressure;BME280_temperature;BME280_humidity;BME280_pressure;Samples;Min_cycle;Max_cycle;Signal;HPM_P1;HPM_P2
2022/10/06 00:00:15;;;;;;;0.32;0.32;;;;;;;;;;4491626;28;20232;-60
2022/10/06 00:02:25;;;;;;;0.45;0.30;;;;;;;;;;4491104;28;20042;-60
2022/10/06 00:04:36;;;;;;;0.82;0.40;;;;;;;;;;4491547;28;28643;-60
2022/10/06 00:06:46;;;;;;;0.98;0.35;;;;;;;;;;4489564;28;30653;-60
2022/10/06 00:08:56;;;;;;;0.98;0.50;;;;;;;;;;4491439;28;24043;-60
2022/10/06 00:11:08;;;;;;;1.27;0.68;;;;;;;;;;4491589;28;23482;-60
2022/10/06 00:13:18;;;;;;;1.17;0.50;;;;;;;;;;4491274;28;20038;-60
2022/10/06 00:15:30;;;;;;;0.60;0.50;;;;;;;;;;4489505;28;20037;-61
2022/10/06 00:17:41;;;;;;;0.75;0.20;;;;;;;;;;4491242;28;20050;-60
2022/10/06 00:19:51;;;;;;;0.40;0.30;;;;;;;;;;4490594;28;20037;-60
2022/10/06 00:22:02;;;;;;;0.40;0.20;;;;;;;;;;4490734;28;41455;-60
2022/10/06 00:24:12;;;;;;;0.38;0.20;;;;;;;;;;4489577;28;20030;-61
2022/10/06 00:26:23;;;;;;;0.40;0.20;;;;;;;;;;4490554;28;34658;-59
2022/10/06 00:28:33;;;;;;;0.22;0.10;;;;;;;;;;4492644;28;20034;-59
2022/10/06 00:30:45;;;;;;;0.15;0.10;;;;;;;;;;4491701;28;20042;-59
2022/10/06 00:32:58;;;;;;;0.10;0.10;;;;;;;;;;4490523;28;20032;-59
2022/10/06 00:35:08;;;;;;;0.10;0.10;;;;;;;;;;4488669;28;20030;-59
2022/10/06 00:37:19;;;;;;;0.20;0.10;;;;;;;;;;4489296;28;20022;-59
2022/10/06 00:39:30;;;;;;;0.75;0.20;;;;;;;;;;4490823;28;20072;-59
2022/10/06 00:41:41;;;;;;;0.22;0.10;;;;;;;;;;4474822;28;20560;-59
2022/10/06 00:43:59;;;;;;;0.15;0.10;;;;;;;;;;4499701;28;20034;-59
2022/10/06 00:46:30;;;;;;;0.10;0.10;;;;;;;;;;4489207;28;20038;-60
2022/10/06 00:48:41;;;;;;;0.30;0.10;;;;;;;;;;4488813;28;20043;-60
2022/10/06 00:50:53;;;;;;;0.13;0.10;;;;;;;;;;4489770;28;21115;-60
2022/10/06 00:53:03;;;;;;;0.10;0.10;;;;;;;;;;4479448;28;20074;-61
2022/10/06 00:55:14;;;;;;;0.10;0.03;;;;;;;;;;4501303;28;20120;-60
2022/10/06 00:57:25;;;;;;;0.40;0.20;;;;;;;;;;4493209;28;20039;-60
2022/10/06 00:59:36;;;;;;;0.63;0.10;;;;;;;;;;4495985;28;39169;-60
2022/10/06 01:01:59;;;;;;;0.05;0.03;;;;;;;;;;4476815;28;20042;-60
2022/10/06 01:04:11;;;;;;;0.10;0.10;;;;;;;;;;4485217;28;20353;-60
2022/10/06 01:06:21;;;;;;;0.38;0.20;;;;;;;;;;4509163;28;20093;-60
2022/10/06 01:08:32;;;;;;;0.20;0.20;;;;;;;;;;4493153;28;20089;-60
2022/10/06 01:10:42;;;;;;;0.10;0.10;;;;;;;;;;4501260;28;20046;-60
2022/10/06 01:12:54;;;;;;;0.40;0.17;;;;;;;;;;4495141;28;20032;-60
2022/10/06 01:15:05;;;;;;;0.10;0.10;;;;;;;;;;4484977;28;20345;-60
2022/10/06 01:17:28;;;;;;;0.10;0.10;;;;;;;;;;4494333;28;20031;-60
2022/10/06 01:19:53;;;;;;;0.20;0.10;;;;;;;;;;4494774;28;20038;-60
2022/10/06 01:22:05;;;;;;;0.10;0.10;;;;;;;;;;4483740;28;20046;-60
2022/10/06 01:24:18;;;;;;;0.52;0.20;;;;;;;;;;4501062;28;21379;-61
2022/10/06 01:26:31;;;;;;;0.17;0.17;;;;;;;;;;4495448;28;20034;-60
2022/10/06 01:28:41;;;;;;;0.30;0.10;;;;;;;;;;4497138;28;20151;-60
2022/10/06 01:30:53;;;;;;;0.10;0.10;;;;;;;;;;4478367;28;20106;-60
2022/10/06 01:33:08;;;;;;;0.10;0.10;;;;;;;;;;4469652;28;20034;-60
2022/10/06 01:35:18;;;;;;;0.22;0.10;;;;;;;;;;4508687;28;20113;-60
2022/10/06 01:37:29;;;;;;;0.77;0.30;;;;;;;;;;4494626;28;20033;-60
2022/10/06 01:39:40;;;;;;;0.10;0.10;;;;;;;;;;4492856;28;20030;-60
2022/10/06 01:41:52;;;;;;;0.20;0.10;;;;;;;;;;4498201;28;20038;-60
2022/10/06 01:44:02;;;;;;;0.15;0.15;;;;;;;;;;4500496;28;20037;-60
2022/10/06 01:46:14;;;;;;;0.30;0.20;;;;;;;;;;4501361;28;20045;-60
2022/10/06 01:48:25;;;;;;;0.82;0.40;;;;;;;;;;4500238;28;20034;-60
2022/10/06 01:50:36;;;;;;;0.32;0.30;;;;;;;;;;4492489;28;20045;-60
2022/10/06 01:52:46;;;;;;;0.55;0.30;;;;;;;;;;4496004;28;20049;-60
2022/10/06 01:54:57;;;;;;;0.63;0.40;;;;;;;;;;4491875;28;20037;-60
2022/10/06 01:57:07;;;;;;;0.65;0.38;;;;;;;;;;4490486;28;20035;-60
2022/10/06 01:59:18;;;;;;;0.75;0.35;;;;;;;;;;4500791;28;20046;-60
2022/10/06 02:01:28;;;;;;;0.73;0.20;;;;;;;;;;4492678;28;20081;-60
2022/10/06 02:03:39;;;;;;;0.43;0.20;;;;;;;;;;4495233;28;20038;-60
2022/10/06 02:05:50;;;;;;;0.60;0.30;;;;;;;;;;4493970;28;20042;-60
2022/10/06 02:08:01;;;;;;;0.40;0.20;;;;;;;;;;4480605;28;20057;-60
2022/10/06 02:10:11;;;;;;;1.02;0.40;;;;;;;;;;4483627;28;20272;-60
2022/10/06 02:12:22;;;;;;;0.82;0.30;;;;;;;;;;4493122;28;20092;-60
2022/10/06 02:14:33;;;;;;;0.77;0.30;;;;;;;;;;4494043;28;20045;-59
2022/10/06 02:16:44;;;;;;;0.40;0.30;;;;;;;;;;4499786;28;20037;-60
2022/10/06 02:18:55;;;;;;;0.50;0.20;;;;;;;;;;4493542;28;20176;-60
2022/10/06 02:21:06;;;;;;;0.45;0.30;;;;;;;;;;4495517;28;20042;-60
2022/10/06 02:23:16;;;;;;;1.45;0.30;;;;;;;;;;4495692;28;20038;-61
2022/10/06 02:25:27;;;;;;;0.75;0.25;;;;;;;;;;4477472;28;20026;-60
2022/10/06 02:27:38;;;;;;;1.20;0.30;;;;;;;;;;4477099;28;20674;-60
2022/10/06 02:29:50;;;;;;;1.00;0.20;;;;;;;;;;4500932;28;20091;-60
2022/10/06 02:32:00;;;;;;;0.95;0.40;;;;;;;;;;4492525;28;20499;-60
2022/10/06 02:34:11;;;;;;;0.30;0.20;;;;;;;;;;4491879;28;20037;-60
2022/10/06 02:36:22;;;;;;;0.68;0.30;;;;;;;;;;4484082;28;20034;-60
2022/10/06 02:38:33;;;;;;;0.52;0.30;;;;;;;;;;4499287;28;20033;-60
2022/10/06 02:40:44;;;;;;;0.32;0.25;;;;;;;;;;4460747;28;20508;-60
2022/10/06 02:42:55;;;;;;;0.73;0.30;;;;;;;;;;4497191;28;20127;-60
2022/10/06 02:45:06;;;;;;;0.85;0.30;;;;;;;;;;4493641;28;20160;-60
2022/10/06 02:47:18;;;;;;;0.55;0.30;;;;;;;;;;4473885;28;20038;-60
2022/10/06 02:49:30;;;;;;;0.80;0.40;;;;;;;;;;4499019;28;20486;-60
2022/10/06 02:51:40;;;;;;;0.77;0.40;;;;;;;;;;4505944;28;20030;-60
2022/10/06 02:53:51;;;;;;;1.50;0.40;;;;;;;;;;4490971;28;27749;-60
2022/10/06 02:56:03;;;;;;;0.63;0.32;;;;;;;;;;4493899;28;20753;-60
2022/10/06 02:58:13;;;;;;;0.82;0.30;;;;;;;;;;4483977;28;20034;-60
2022/10/06 03:00:24;;;;;;;0.57;0.30;;;;;;;;;;4492950;28;20974;-60
2022/10/06 03:02:34;;;;;;;0.52;0.22;;;;;;;;;;4492890;28;20040;-59
2022/10/06 03:04:45;;;;;;;1.00;0.30;;;;;;;;;;4490774;28;20125;-59
2022/10/06 03:06:56;;;;;;;1.45;0.43;;;;;;;;;;4500640;28;20125;-60
2022/10/06 03:09:08;;;;;;;0.75;0.47;;;;;;;;;;4498957;28;20054;-60
2022/10/06 03:11:29;;;;;;;0.90;0.40;;;;;;;;;;4491776;28;21006;-60
2022/10/06 03:13:40;;;;;;;0.50;0.30;;;;;;;;;;4499293;28;20030;-60
2022/10/06 03:15:51;;;;;;;1.75;0.40;;;;;;;;;;4483357;28;20497;-60
2022/10/06 03:18:01;;;;;;;0.32;0.30;;;;;;;;;;4490777;28;22241;-60
2022/10/06 03:20:12;;;;;;;0.95;0.40;;;;;;;;;;4492599;28;20048;-60
2022/10/06 03:22:22;;;;;;;1.35;0.40;;;;;;;;;;4488951;28;20030;-60
2022/10/06 03:24:38;;;;;;;0.75;0.40;;;;;;;;;;4492497;28;20089;-60
2022/10/06 03:26:49;;;;;;;0.80;0.40;;;;;;;;;;4493429;28;20507;-60
2022/10/06 03:29:01;;;;;;;0.50;0.32;;;;;;;;;;4492140;28;20042;-59
2022/10/06 03:31:12;;;;;;;1.42;0.40;;;;;;;;;;4498752;28;20792;-60
2022/10/06 03:33:22;;;;;;;0.77;0.40;;;;;;;;;;4500469;28;20048;-60
2022/10/06 03:35:33;;;;;;;1.80;0.50;;;;;;;;;;4491788;28;20034;-60
2022/10/06 03:37:43;;;;;;;0.40;0.40;;;;;;;;;;4498773;28;20128;-60
2022/10/06 03:39:54;;;;;;;1.08;0.50;;;;;;;;;;4499512;28;20128;-60
2022/10/06 03:42:04;;;;;;;2.05;0.50;;;;;;;;;;4494369;28;20049;-60
2022/10/06 03:44:15;;;;;;;0.52;0.30;;;;;;;;;;4491154;28;20040;-60
2022/10/06 03:46:29;;;;;;;1.23;0.45;;;;;;;;;;4499083;28;20095;-60
2022/10/06 03:48:40;;;;;;;2.13;0.60;;;;;;;;;;4499388;28;20057;-61
2022/10/06 03:50:55;;;;;;;1.50;0.65;;;;;;;;;;4491969;28;20161;-60
2022/10/06 03:53:06;;;;;;;0.60;0.38;;;;;;;;;;4491477;28;21076;-60
2022/10/06 03:55:16;;;;;;;0.80;0.40;;;;;;;;;;4491799;28;20097;-60
2022/10/06 03:57:27;;;;;;;1.08;0.47;;;;;;;;;;4491726;28;30058;-60
2022/10/06 03:59:38;;;;;;;1.83;0.30;;;;;;;;;;4499328;28;20805;-60
2022/10/06 04:01:49;;;;;;;1.70;0.30;;;;;;;;;;4493012;28;20041;-60
2022/10/06 04:04:09;;;;;;;1.65;0.50;;;;;;;;;;4505433;28;20369;-60
2022/10/06 04:06:19;;;;;;;1.30;0.55;;;;;;;;;;4490598;28;20038;-60
2022/10/06 04:08:32;;;;;;;1.10;0.40;;;;;;;;;;4507715;28;20034;-60
2022/10/06 04:10:42;;;;;;;1.90;0.60;;;;;;;;;;4498334;28;20046;-60
2022/10/06 04:12:53;;;;;;;0.75;0.40;;;;;;;;;;4492409;28;20038;-60
2022/10/06 04:15:04;;;;;;;1.38;0.50;;;;;;;;;;4491928;28;20034;-60
2022/10/06 04:17:14;;;;;;;1.92;1.00;;;;;;;;;;4498290;28;20404;-61
2022/10/06 04:19:26;;;;;;;2.33;1.05;;;;;;;;;;4492356;28;20034;-60
2022/10/06 04:21:40;;;;;;;2.10;1.20;;;;;;;;;;4489377;28;20123;-60
2022/10/06 04:23:57;;;;;;;2.60;1.58;;;;;;;;;;4459963;28;20153;-60
2022/10/06 04:26:14;;;;;;;3.50;1.58;;;;;;;;;;4500931;28;21231;-59
2022/10/06 04:28:26;;;;;;;2.85;1.67;;;;;;;;;;4502035;28;20080;-60
2022/10/06 04:30:37;;;;;;;3.65;2.00;;;;;;;;;;4494842;28;20049;-60
2022/10/06 04:32:47;;;;;;;2.38;1.55;;;;;;;;;;4495044;28;20345;-60
2022/10/06 04:34:58;;;;;;;1.67;0.90;;;;;;;;;;4491934;28;20546;-61
2022/10/06 04:37:10;;;;;;;1.98;0.88;;;;;;;;;;4484333;28;20554;-60
2022/10/06 04:39:21;;;;;;;1.75;0.55;;;;;;;;;;4490673;28;20030;-60
2022/10/06 04:41:35;;;;;;;2.60;0.98;;;;;;;;;;4501363;28;20040;-60
2022/10/06 04:43:47;;;;;;;1.73;0.68;;;;;;;;;;4484517;28;20619;-60
2022/10/06 04:45:59;;;;;;;0.80;0.60;;;;;;;;;;4500560;28;20030;-60
2022/10/06 04:48:10;;;;;;;1.52;0.65;;;;;;;;;;4469562;28;20081;-60
2022/10/06 04:50:20;;;;;;;1.30;0.60;;;;;;;;;;4495449;28;20042;-60
2022/10/06 04:52:48;;;;;;;2.17;1.00;;;;;;;;;;4501124;28;20181;-60
2022/10/06 04:54:59;;;;;;;1.85;0.82;;;;;;;;;;4492976;28;20027;-60
2022/10/06 04:57:09;;;;;;;1.42;0.80;;;;;;;;;;4494097;28;20042;-60
2022/10/06 04:59:20;;;;;;;1.85;0.80;;;;;;;;;;4490349;28;20026;-60
2022/10/06 05:01:33;;;;;;;1.52;0.77;;;;;;;;;;4495264;28;21235;-60
2022/10/06 05:03:47;;;;;;;1.50;0.75;;;;;;;;;;4502349;28;20034;-60
2022/10/06 05:06:06;;;;;;;2.17;0.77;;;;;;;;;;4501974;28;20339;-60
2022/10/06 05:08:17;;;;;;;1.45;0.60;;;;;;;;;;4484637;28;20653;-60
2022/10/06 05:10:28;;;;;;;1.30;0.55;;;;;;;;;;4500914;28;20042;-60
2022/10/06 05:12:38;;;;;;;2.75;0.63;;;;;;;;;;4500647;28;20033;-60
2022/10/06 05:14:49;;;;;;;1.33;0.60;;;;;;;;;;4495412;28;20999;-60
2022/10/06 05:17:00;;;;;;;2.40;0.80;;;;;;;;;;4500455;28;20039;-61
2022/10/06 05:19:12;;;;;;;3.25;1.15;;;;;;;;;;4501297;28;20022;-60
2022/10/06 05:21:26;;;;;;;2.30;1.20;;;;;;;;;;4496156;28;20034;-60
2022/10/06 05:23:39;;;;;;;2.03;0.77;;;;;;;;;;4493815;28;20034;-61
2022/10/06 05:25:54;;;;;;;1.60;0.93;;;;;;;;;;4501338;28;20033;-60
2022/10/06 05:28:05;;;;;;;1.73;0.95;;;;;;;;;;4484873;28;20076;-60
2022/10/06 05:30:15;;;;;;;1.65;0.80;;;;;;;;;;4500749;28;20048;-61
2022/10/06 05:32:25;;;;;;;1.40;0.70;;;;;;;;;;4501415;28;20538;-60
2022/10/06 05:34:36;;;;;;;2.38;0.80;;;;;;;;;;4494781;28;20056;-61
2022/10/06 05:36:46;;;;;;;1.58;0.82;;;;;;;;;;4494321;28;20034;-60
2022/10/06 05:38:57;;;;;;;2.00;0.98;;;;;;;;;;4494364;28;20034;-61
2022/10/06 05:41:14;;;;;;;1.80;0.70;;;;;;;;;;4480662;28;20097;-60
2022/10/06 05:43:25;;;;;;;1.73;0.88;;;;;;;;;;4508812;28;20030;-60
2022/10/06 05:45:36;;;;;;;2.22;1.00;;;;;;;;;;4497403;28;20046;-58
2022/10/06 05:47:46;;;;;;;1.27;0.70;;;;;;;;;;4496042;28;20030;-60
2022/10/06 05:49:57;;;;;;;1.80;0.80;;;;;;;;;;4478887;28;20496;-60
2022/10/06 05:52:08;;;;;;;1.60;0.80;;;;;;;;;;4491757;28;23386;-60
2022/10/06 05:54:22;;;;;;;2.00;0.90;;;;;;;;;;4492753;28;20042;-60
2022/10/06 05:56:35;;;;;;;1.30;0.70;;;;;;;;;;4500403;28;20028;-60
2022/10/06 05:58:49;;;;;;;1.50;0.80;;;;;;;;;;4477261;28;20038;-60
2022/10/06 06:01:10;;;;;;;2.17;0.90;;;;;;;;;;4484583;28;20034;-60
2022/10/06 06:03:20;;;;;;;1.45;0.82;;;;;;;;;;4491649;28;20038;-60
2022/10/06 06:05:31;;;;;;;1.98;0.75;;;;;;;;;;4490644;28;20026;-60
2022/10/06 06:07:41;;;;;;;2.03;0.70;;;;;;;;;;4495196;28;20046;-60
2022/10/06 06:09:52;;;;;;;2.42;0.75;;;;;;;;;;4489263;28;20420;-60
2022/10/06 06:12:02;;;;;;;1.58;0.80;;;;;;;;;;4500205;28;20169;-60
2022/10/06 06:15:59;;;;;;;2.58;1.08;;;;;;;;;;4494001;28;20761;-60
2022/10/06 06:16:58;;;;;;;1.73;0.95;;;;;;;;;;4493954;28;20566;-60
2022/10/06 06:19:10;;;;;;;1.85;0.85;;;;;;;;;;4491918;28;20042;-61
2022/10/06 06:21:24;;;;;;;1.95;0.80;;;;;;;;;;4493015;28;20105;-61
2022/10/06 06:23:43;;;;;;;1.45;0.63;;;;;;;;;;4501123;28;20038;-61
2022/10/06 06:26:01;;;;;;;1.55;0.82;;;;;;;;;;4489527;28;20036;-60
2022/10/06 06:28:12;;;;;;;2.58;0.73;;;;;;;;;;4492894;28;20038;-60
2022/10/06 06:30:24;;;;;;;2.38;0.95;;;;;;;;;;4494152;28;20805;-60
2022/10/06 06:32:34;;;;;;;1.88;0.82;;;;;;;;;;4500374;28;20030;-60
2022/10/06 06:34:46;;;;;;;1.85;0.80;;;;;;;;;;4494835;28;20030;-60
2022/10/06 06:36:57;;;;;;;2.15;0.95;;;;;;;;;;4493928;28;20857;-60
2022/10/06 06:39:10;;;;;;;2.55;0.75;;;;;;;;;;4494246;28;20057;-60
2022/10/06 06:41:28;;;;;;;2.15;0.90;;;;;;;;;;4491303;28;20038;-60
2022/10/06 06:44:02;;;;;;;1.92;0.80;;;;;;;;;;4485175;28;20136;-60
2022/10/06 06:46:23;;;;;;;1.33;0.80;;;;;;;;;;4492026;28;20034;-61
2022/10/06 06:48:43;;;;;;;1.63;0.82;;;;;;;;;;4488829;28;20042;-60
2022/10/06 06:50:57;;;;;;;1.13;0.68;;;;;;;;;;4491558;28;20034;-60
2022/10/06 06:53:08;;;;;;;2.60;0.88;;;;;;;;;;4493164;28;20508;-60
2022/10/06 06:55:20;;;;;;;1.70;0.60;;;;;;;;;;4493839;28;20037;-60
2022/10/06 06:57:33;;;;;;;2.38;0.73;;;;;;;;;;4499511;28;20038;-62
2022/10/06 06:59:44;;;;;;;2.20;0.80;;;;;;;;;;4500147;28;20034;-60
2022/10/06 07:01:56;;;;;;;2.08;0.70;;;;;;;;;;4499761;28;20041;-60
2022/10/06 07:04:08;;;;;;;1.08;0.50;;;;;;;;;;4477910;28;20075;-60
2022/10/06 07:06:20;;;;;;;1.88;0.60;;;;;;;;;;4493250;28;20034;-59
2022/10/06 07:08:30;;;;;;;2.40;0.80;;;;;;;;;;4491012;28;20473;-59
2022/10/06 07:10:43;;;;;;;1.27;0.55;;;;;;;;;;4483194;28;20042;-60
2022/10/06 07:12:54;;;;;;;3.40;0.90;;;;;;;;;;4499273;28;20041;-60
2022/10/06 07:25:11;;;;;;;1.70;0.65;;;;;;;;;;4500491;28;20042;-60
2022/10/06 07:27:25;;;;;;;2.10;0.70;;;;;;;;;;4489651;28;20796;-59
2022/10/06 07:29:35;;;;;;;1.88;0.68;;;;;;;;;;4491765;28;20396;-60
2022/10/06 07:31:45;;;;;;;1.17;0.70;;;;;;;;;;4489715;28;20439;-60
2022/10/06 07:33:56;;;;;;;2.03;0.70;;;;;;;;;;4500270;28;20052;-59
2022/10/06 07:36:06;;;;;;;1.40;0.70;;;;;;;;;;4498967;28;20022;-59
2022/10/06 07:38:23;;;;;;;1.92;0.70;;;;;;;;;;4491550;28;20035;-60
2022/10/06 07:40:36;;;;;;;2.55;1.00;;;;;;;;;;4490708;28;20081;-60
2022/10/06 07:42:48;;;;;;;1.92;0.70;;;;;;;;;;4506124;28;20114;-60
2022/10/06 07:47:32;;;;;;;2.55;0.90;;;;;;;;;;4488625;28;20146;-59
2022/10/06 07:49:45;;;;;;;1.83;0.90;;;;;;;;;;4490753;28;20046;-59
2022/10/06 07:51:57;;;;;;;1.55;0.60;;;;;;;;;;4499143;28;20978;-59
2022/10/06 07:54:08;;;;;;;1.42;0.65;;;;;;;;;;4492060;28;20034;-60
2022/10/06 07:56:56;;;;;;;;;;;;;;;;;;4474847;28;20114;-60
2022/10/06 07:59:07;;;;;;;1.70;0.63;;;;;;;;;;4476755;28;20245;-60
2022/10/06 08:01:19;;;;;;;2.90;0.82;;;;;;;;;;4494359;28;20556;-59
2022/10/06 08:03:29;;;;;;;3.50;0.93;;;;;;;;;;4495088;28;20042;-59
2022/10/06 08:05:39;;;;;;;1.90;0.70;;;;;;;;;;4494120;28;29614;-61
2022/10/06 08:07:50;;;;;;;2.25;0.70;;;;;;;;;;4476656;28;20038;-60
2022/10/06 08:10:01;;;;;;;2.13;0.80;;;;;;;;;;4501710;28;20618;-59
2022/10/06 08:14:40;;;;;;;2.03;0.80;;;;;;;;;;4495844;28;20653;-60
2022/10/06 08:16:51;;;;;;;2.63;0.90;;;;;;;;;;4492544;28;26028;-59
2022/10/06 08:19:01;;;;;;;2.80;0.90;;;;;;;;;;4494682;28;20757;-59
2022/10/06 08:21:17;;;;;;;2.35;0.88;;;;;;;;;;4493602;28;34774;-60
2022/10/06 08:23:27;;;;;;;2.88;0.85;;;;;;;;;;4494643;28;20049;-59
2022/10/06 08:25:42;;;;;;;2.20;0.60;;;;;;;;;;4493964;28;20045;-59
2022/10/06 08:27:52;;;;;;;3.80;0.80;;;;;;;;;;4507279;28;20029;-59
2022/10/06 08:30:06;;;;;;;1.05;0.70;;;;;;;;;;4502246;28;20046;-59
2022/10/06 08:32:19;;;;;;;2.65;0.75;;;;;;;;;;4493442;28;20039;-59
2022/10/06 08:34:29;;;;;;;2.53;0.60;;;;;;;;;;4492781;28;20022;-59
2022/10/06 08:36:40;;;;;;;3.28;0.70;;;;;;;;;;4493518;28;20050;-60
2022/10/06 08:38:50;;;;;;;1.77;0.75;;;;;;;;;;4492921;28;20038;-59
2022/10/06 08:41:01;;;;;;;2.50;0.85;;;;;;;;;;4492096;28;39835;-59
2022/10/06 08:43:18;;;;;;;2.15;0.75;;;;;;;;;;4498968;28;20796;-59
2022/10/06 08:45:35;;;;;;;2.38;0.88;;;;;;;;;;4479597;28;21096;-59
2022/10/06 08:47:57;;;;;;;2.17;0.60;;;;;;;;;;4495331;28;20061;-59
2022/10/06 08:50:11;;;;;;;3.00;0.95;;;;;;;;;;4487572;28;21316;-59
2022/10/06 08:52:41;;;;;;;2.60;0.80;;;;;;;;;;4497423;28;20751;-59
2022/10/06 08:54:51;;;;;;;1.63;0.73;;;;;;;;;;4493924;28;20026;-60
2022/10/06 08:57:19;;;;;;;2.40;0.75;;;;;;;;;;4494417;28;20038;-59
2022/10/06 08:59:34;;;;;;;3.50;0.70;;;;;;;;;;4493646;28;20084;-59
2022/10/06 09:01:50;;;;;;;1.30;0.57;;;;;;;;;;4502225;28;20032;-59
2022/10/06 09:04:02;;;;;;;1.83;0.68;;;;;;;;;;4492322;28;20042;-59
2022/10/06 09:06:35;;;;;;;2.47;0.70;;;;;;;;;;4493592;28;21920;-59
2022/10/06 09:09:27;;;;;;;1.73;0.90;;;;;;;;;;4480937;28;20057;-59
2022/10/06 09:11:43;;;;;;;2.33;0.60;;;;;;;;;;4501696;28;20065;-59
2022/10/06 09:14:07;;;;;;;1.40;0.55;;;;;;;;;;4495860;28;20144;-59
2022/10/06 09:16:27;;;;;;;1.73;0.60;;;;;;;;;;4493514;28;20646;-59
2022/10/06 09:18:48;;;;;;;1.63;0.60;;;;;;;;;;4491837;28;20600;-58
2022/10/06 09:21:03;;;;;;;2.20;0.60;;;;;;;;;;4498019;28;20578;-58
2022/10/06 09:23:15;;;;;;;2.40;0.75;;;;;;;;;;4493071;28;20038;-60
2022/10/06 09:25:27;;;;;;;1.80;0.50;;;;;;;;;;4493378;28;20065;-59
2022/10/06 09:27:39;;;;;;;1.30;0.80;;;;;;;;;;4491967;28;20061;-59
2022/10/06 09:29:50;;;;;;;2.10;0.50;;;;;;;;;;4493541;28;20053;-59
2022/10/06 09:32:01;;;;;;;1.85;0.65;;;;;;;;;;4492765;28;20085;-59
2022/10/06 09:34:37;;;;;;;1.15;0.60;;;;;;;;;;4500918;28;20395;-59
2022/10/06 09:37:02;;;;;;;1.40;0.50;;;;;;;;;;4496890;28;20034;-58
2022/10/06 09:39:23;;;;;;;2.05;0.60;;;;;;;;;;4495903;28;20034;-59
2022/10/06 09:41:37;;;;;;;2.53;0.60;;;;;;;;;;4493124;28;20073;-59
2022/10/06 09:43:54;;;;;;;2.20;0.75;;;;;;;;;;4491452;28;20030;-59
2022/10/06 09:46:28;;;;;;;1.55;0.60;;;;;;;;;;4492971;28;20031;-58
2022/10/06 09:48:38;;;;;;;2.33;0.70;;;;;;;;;;4491666;28;20046;-59
2022/10/06 09:51:14;;;;;;;1.45;0.60;;;;;;;;;;4492877;28;20046;-59
2022/10/06 09:53:25;;;;;;;1.85;0.50;;;;;;;;;;4492095;28;20046;-59
2022/10/06 09:55:36;;;;;;;2.05;0.52;;;;;;;;;;4492399;28;20143;-59
2022/10/06 09:57:48;;;;;;;1.92;0.50;;;;;;;;;;4493513;28;20531;-59
2022/10/06 10:00:00;;;;;;;1.95;0.60;;;;;;;;;;4492477;28;20516;-59
2022/10/06 10:02:25;;;;;;;2.53;0.60;;;;;;;;;;4491372;28;20045;-59
2022/10/06 10:04:39;;;;;;;2.65;0.75;;;;;;;;;;4493996;28;20043;-59
2022/10/06 10:06:50;;;;;;;1.50;0.55;;;;;;;;;;4494858;28;20030;-58
2022/10/06 10:09:20;;;;;;;1.50;0.60;;;;;;;;;;4491686;28;20043;-59
2022/10/06 10:13:59;;;;;;;1.17;0.60;;;;;;;;;;4492747;28;20036;-58
2022/10/06 10:16:15;;;;;;;1.90;0.70;;;;;;;;;;4492544;28;28898;-58
2022/10/06 10:18:29;;;;;;;2.20;0.50;;;;;;;;;;4492556;28;20038;-58
2022/10/06 10:20:53;;;;;;;2.38;0.63;;;;;;;;;;4496669;28;20045;-59
2022/10/06 10:23:44;;;;;;;1.25;0.60;;;;;;;;;;4491694;28;20030;-59
2022/10/06 10:26:09;;;;;;;1.73;0.50;;;;;;;;;;4490545;28;20073;-59
2022/10/06 10:28:33;;;;;;;3.65;0.70;;;;;;;;;;4491638;28;20042;-58
2022/10/06 10:30:54;;;;;;;1.63;0.52;;;;;;;;;;4493708;28;20142;-59
2022/10/06 10:33:26;;;;;;;2.80;0.88;;;;;;;;;;4491870;28;20042;-59
2022/10/06 10:35:44;;;;;;;1.65;0.57;;;;;;;;;;4501485;28;20283;-58
2022/10/06 10:38:08;;;;;;;1.27;0.50;;;;;;;;;;4494477;28;20030;-58
2022/10/06 10:40:50;;;;;;;3.25;0.60;;;;;;;;;;4476623;28;20074;-58
2022/10/06 10:43:06;;;;;;;2.65;0.60;;;;;;;;;;4493785;28;20586;-58
2022/10/06 10:45:23;;;;;;;1.52;0.57;;;;;;;;;;4476141;28;20675;-60
2022/10/06 10:47:36;;;;;;;1.73;0.60;;;;;;;;;;4490724;28;20034;-59
2022/10/06 10:49:58;;;;;;;2.08;0.50;;;;;;;;;;4499750;28;20046;-59
2022/10/06 10:52:15;;;;;;;1.67;0.60;;;;;;;;;;4497969;28;20108;-59
2022/10/06 10:54:40;;;;;;;2.30;0.50;;;;;;;;;;4492929;28;20033;-58
2022/10/06 10:56:52;;;;;;;1.85;0.50;;;;;;;;;;4489883;28;20084;-59
2022/10/06 10:59:15;;;;;;;2.72;0.68;;;;;;;;;;4490978;28;20047;-59
2022/10/06 11:01:49;;;;;;;2.42;0.70;;;;;;;;;;4492702;28;20170;-60
2022/10/06 11:03:59;;;;;;;1.35;0.50;;;;;;;;;;4491290;28;20634;-59
2022/10/06 11:06:24;;;;;;;1.40;0.60;;;;;;;;;;4499291;28;20044;-59
2022/10/06 11:09:01;;;;;;;1.15;0.50;;;;;;;;;;4491679;28;20026;-59
2022/10/06 11:11:23;;;;;;;1.17;0.50;;;;;;;;;;4495856;28;20112;-59
2022/10/06 11:13:47;;;;;;;2.17;0.60;;;;;;;;;;4506682;28;20049;-60
2022/10/06 11:16:03;;;;;;;2.17;0.70;;;;;;;;;;4491636;28;20108;-59
2022/10/06 11:18:27;;;;;;;2.45;0.80;;;;;;;;;;4491374;28;20038;-59
2022/10/06 11:21:00;;;;;;;3.40;0.77;;;;;;;;;;4496952;28;20033;-59
2022/10/06 11:23:36;;;;;;;1.17;0.40;;;;;;;;;;4494141;28;20084;-60
2022/10/06 11:26:24;;;;;;;1.42;0.50;;;;;;;;;;4492245;28;20034;-59
2022/10/06 11:29:06;;;;;;;1.90;0.60;;;;;;;;;;4491855;28;20124;-59
2022/10/06 11:31:45;;;;;;;2.03;0.70;;;;;;;;;;4491686;28;20352;-59
2022/10/06 11:33:59;;;;;;;1.15;0.55;;;;;;;;;;4490946;28;20125;-59
2022/10/06 11:36:17;;;;;;;2.72;0.77;;;;;;;;;;4492164;28;20602;-59
2022/10/06 11:38:37;;;;;;;2.33;0.50;;;;;;;;;;4495824;28;20674;-59
2022/10/06 11:40:59;;;;;;;1.08;0.40;;;;;;;;;;4484278;28;20035;-59
2022/10/06 11:43:26;;;;;;;1.40;0.57;;;;;;;;;;4492942;28;20041;-59
2022/10/06 11:45:47;;;;;;;1.30;0.40;;;;;;;;;;4495105;28;20029;-59
2022/10/06 11:48:14;;;;;;;1.95;0.60;;;;;;;;;;4490316;28;20617;-60
2022/10/06 11:50:35;;;;;;;1.25;0.50;;;;;;;;;;4489974;28;20674;-59
2022/10/06 11:52:46;;;;;;;3.67;0.60;;;;;;;;;;4491216;28;20530;-58
2022/10/06 11:55:07;;;;;;;1.98;0.57;;;;;;;;;;4491764;28;20057;-59
2022/10/06 11:57:21;;;;;;;1.88;0.68;;;;;;;;;;4488835;28;20089;-59
2022/10/06 11:59:31;;;;;;;1.63;0.57;;;;;;;;;;4490156;28;20034;-59
2022/10/06 12:01:46;;;;;;;1.40;0.45;;;;;;;;;;4489918;28;31682;-60
2022/10/06 12:04:17;;;;;;;0.98;0.60;;;;;;;;;;4491147;28;20092;-59
2022/10/06 12:06:46;;;;;;;1.38;0.60;;;;;;;;;;4490182;28;20043;-59
2022/10/06 12:08:57;;;;;;;1.58;0.57;;;;;;;;;;4490083;28;20030;-59
2022/10/06 12:11:42;;;;;;;2.00;0.60;;;;;;;;;;4492379;28;20030;-59
2022/10/06 12:13:59;;;;;;;2.15;0.60;;;;;;;;;;4492420;28;20050;-59
2022/10/06 12:16:15;;;;;;;1.73;0.50;;;;;;;;;;4490831;28;20140;-59
2022/10/06 12:18:34;;;;;;;1.33;0.50;;;;;;;;;;4490406;28;20165;-59
2022/10/06 12:20:54;;;;;;;2.80;0.80;;;;;;;;;;4493396;28;20042;-58
2022/10/06 12:23:07;;;;;;;1.30;0.50;;;;;;;;;;4490690;28;20801;-58
2022/10/06 12:25:45;;;;;;;1.75;0.60;;;;;;;;;;4490587;28;20046;-58
2022/10/06 12:28:10;;;;;;;1.05;0.52;;;;;;;;;;4491224;28;20542;-58
2022/10/06 12:30:24;;;;;;;2.70;0.50;;;;;;;;;;4488972;28;20042;-58
2022/10/06 12:32:55;;;;;;;1.73;0.60;;;;;;;;;;4505150;28;20087;-59
2022/10/06 12:35:23;;;;;;;1.52;0.65;;;;;;;;;;4488899;28;20679;-59
2022/10/06 12:37:51;;;;;;;1.33;0.60;;;;;;;;;;4491355;28;20041;-59
2022/10/06 12:40:39;;;;;;;1.67;0.50;;;;;;;;;;4498984;28;20034;-60
2022/10/06 12:42:50;;;;;;;1.92;0.57;;;;;;;;;;4489566;28;20034;-59
2022/10/06 12:45:00;;;;;;;1.75;0.63;;;;;;;;;;4490624;28;20721;-59
2022/10/06 12:47:31;;;;;;;1.20;0.50;;;;;;;;;;4491684;28;37935;-59
2022/10/06 12:49:41;;;;;;;1.45;0.50;;;;;;;;;;4499103;28;20073;-59
2022/10/06 12:51:52;;;;;;;1.40;0.45;;;;;;;;;;4494110;28;20109;-59
2022/10/06 12:54:08;;;;;;;2.78;0.70;;;;;;;;;;4495640;28;20212;-59
2022/10/06 12:56:36;;;;;;;1.70;0.52;;;;;;;;;;4493255;28;20042;-59
2022/10/06 12:58:47;;;;;;;;;;;;;;;;;;4503630;28;20076;-61
2022/10/06 13:01:03;;;;;;;1.23;0.60;;;;;;;;;;4493545;28;20540;-59
2022/10/06 13:03:17;;;;;;;0.98;0.50;;;;;;;;;;4493489;28;20068;-60
2022/10/06 13:05:28;;;;;;;1.38;0.50;;;;;;;;;;4501828;28;20038;-59
2022/10/06 13:07:59;;;;;;;1.40;0.40;;;;;;;;;;4493584;28;20631;-59
2022/10/06 13:10:13;;;;;;;0.95;0.47;;;;;;;;;;4493599;28;20607;-60
2022/10/06 13:12:29;;;;;;;1.40;0.60;;;;;;;;;;4494011;28;20042;-59
2022/10/06 13:14:40;;;;;;;1.48;0.50;;;;;;;;;;4494108;28;20588;-59
2022/10/06 13:16:50;;;;;;;1.80;0.60;;;;;;;;;;4491666;28;20042;-59
2022/10/06 13:19:00;;;;;;;2.45;0.68;;;;;;;;;;4490996;28;35314;-59
2022/10/06 13:21:13;;;;;;;3.08;0.70;;;;;;;;;;4495040;28;32611;-59
2022/10/06 13:23:31;;;;;;;1.63;0.55;;;;;;;;;;4494929;28;20034;-59
2022/10/06 13:26:20;;;;;;;1.23;0.50;;;;;;;;;;4494013;28;20037;-59
2022/10/06 13:28:42;;;;;;;;;;;;;;;;;;4477487;28;20056;-59
2022/10/06 13:31:00;;;;;;;0.95;0.50;;;;;;;;;;4493865;28;19922;-59
2022/10/06 13:33:11;;;;;;;1.60;0.40;;;;;;;;;;4492047;28;20042;-59
2022/10/06 13:35:23;;;;;;;1.70;0.40;;;;;;;;;;4494050;28;20030;-59
2022/10/06 13:37:35;;;;;;;1.75;0.50;;;;;;;;;;4496941;28;20557;-59
2022/10/06 13:39:45;;;;;;;1.67;0.50;;;;;;;;;;4492550;28;20132;-59
2022/10/06 13:42:10;;;;;;;1.73;0.60;;;;;;;;;;4500719;28;30728;-59
2022/10/06 13:44:42;;;;;;;1.10;0.50;;;;;;;;;;4493317;28;20038;-59
2022/10/06 13:47:05;;;;;;;1.50;0.40;;;;;;;;;;4492438;28;20579;-60
2022/10/06 13:49:21;;;;;;;1.98;0.50;;;;;;;;;;4493636;28;20034;-59